createdAt,value
2023-02-11T00:01:55.521Z,6.20
2023-02-11T00:04:22.962Z,6.09
2023-02-11T00:06:50.404Z,6.04
2023-02-11T00:09:17.864Z,6.02
2023-02-11T00:11:45.277Z,6.33
2023-02-11T00:14:12.727Z,6.19
2023-02-11T00:16:39.891Z,6.17
2023-02-11T00:19:07.447Z,6.18
2023-02-11T00:21:34.800Z,6.26
2023-02-11T00:24:02.357Z,6.36
2023-02-11T00:26:31.068Z,6.23
2023-02-11T00:28:59.091Z,5.91
2023-02-11T00:31:29.318Z,6.13
2023-02-11T00:33:56.982Z,5.95
2023-02-11T00:36:26.711Z,6.16
2023-02-11T00:38:54.543Z,6.16
2023-02-11T00:41:22.234Z,6.15
2023-02-11T00:43:49.888Z,6.18
2023-02-11T00:46:18.215Z,6.08
2023-02-11T00:48:45.644Z,5.57
2023-02-11T00:51:12.918Z,5.84
2023-02-11T00:53:40.230Z,5.78
2023-02-11T00:56:08.102Z,6.07
2023-02-11T00:58:35.765Z,6.04
2023-02-11T01:01:03.023Z,6.04
2023-02-11T01:03:30.506Z,5.96
2023-02-11T01:05:57.741Z,6.06
2023-02-11T01:08:24.886Z,6.18
2023-02-11T01:10:56.249Z,6.11
2023-02-11T01:13:24.096Z,6.15
2023-02-11T01:15:54.750Z,6.05
2023-02-11T01:18:22.006Z,6.27
2023-02-11T01:20:49.429Z,6.23
2023-02-11T01:23:16.900Z,6.21
2023-02-11T01:25:44.417Z,6.23
2023-02-11T01:28:22.256Z,6.43
2023-02-11T01:30:49.815Z,6.26
2023-02-11T01:33:17.211Z,6.05
2023-02-11T01:35:44.551Z,6.02
2023-02-11T01:38:32.219Z,6.09
2023-02-11T01:41:00.669Z,5.92
2023-02-11T01:43:34.918Z,6.09
2023-02-11T01:46:05.149Z,6.19
2023-02-11T01:48:34.022Z,6.28
2023-02-11T01:51:02.724Z,6.21
2023-02-11T01:53:48.481Z,6.11
2023-02-11T01:56:35.813Z,5.81
2023-02-11T01:59:04.568Z,6.00
2023-02-11T02:01:32.250Z,5.81
2023-02-11T02:04:00.042Z,5.73
2023-02-11T02:06:33.818Z,5.67
2023-02-11T02:09:11.716Z,5.76
2023-02-11T02:11:39.084Z,5.84
2023-02-11T02:14:06.908Z,5.64
2023-02-11T02:16:35.228Z,5.70
2023-02-11T02:19:11.478Z,5.46
2023-02-11T02:21:57.877Z,5.40
2023-02-11T02:24:32.952Z,4.88
2023-02-11T02:27:15.828Z,5.44
2023-02-11T02:29:42.908Z,5.50
2023-02-11T02:32:19.539Z,5.67
2023-02-11T02:34:51.339Z,5.86
2023-02-11T02:37:24.901Z,5.69
2023-02-11T02:39:52.655Z,5.36
2023-02-11T02:42:20.148Z,5.43
2023-02-11T02:44:50.940Z,5.55
2023-02-11T02:47:20.738Z,5.46
2023-02-11T02:49:48.191Z,5.15
2023-02-11T02:52:18.038Z,5.17
2023-02-11T02:54:53.075Z,4.99
2023-02-11T02:57:31.851Z,5.31
2023-02-11T03:00:17.851Z,5.30
2023-02-11T03:02:50.576Z,5.37
2023-02-11T03:05:17.664Z,5.19
2023-02-11T03:07:47.769Z,5.27
2023-02-11T03:10:16.693Z,5.13
2023-02-11T03:12:44.249Z,5.35
2023-02-11T03:15:11.680Z,5.29
2023-02-11T03:17:39.646Z,5.08
2023-02-11T03:20:07.040Z,5.40
2023-02-11T03:22:48.409Z,5.39
2023-02-11T03:25:15.564Z,5.17
2023-02-11T03:27:53.295Z,5.54
2023-02-11T03:30:27.595Z,5.49
2023-02-11T03:32:59.382Z,5.63
2023-02-11T03:35:32.821Z,5.52
2023-02-11T03:38:03.294Z,5.35
2023-02-11T03:40:32.591Z,5.40
2023-02-11T03:43:01.193Z,5.41
2023-02-11T03:45:28.664Z,5.36
2023-02-11T03:47:57.791Z,5.48
2023-02-11T03:50:25.239Z,5.53
2023-02-11T03:52:52.362Z,5.52
2023-02-11T03:55:19.949Z,5.42
2023-02-11T03:57:47.494Z,5.55
2023-02-11T04:00:14.751Z,5.36
2023-02-11T04:02:42.677Z,5.42
2023-02-11T04:05:10.948Z,5.24
2023-02-11T04:07:38.436Z,5.35
2023-02-11T04:10:06.302Z,5.23
2023-02-11T04:12:33.474Z,5.44
2023-02-11T04:15:00.716Z,5.35
2023-02-11T04:17:28.188Z,5.08
2023-02-11T04:19:55.716Z,5.20
2023-02-11T04:22:22.891Z,5.13
2023-02-11T04:24:50.382Z,5.15
2023-02-11T04:27:17.611Z,5.16
2023-02-11T04:29:44.731Z,5.09
2023-02-11T04:32:30.447Z,5.19
2023-02-11T04:34:57.977Z,5.12
2023-02-11T04:37:25.105Z,5.05
2023-02-11T04:39:52.242Z,5.05
2023-02-11T04:42:19.703Z,5.19
2023-02-11T04:44:46.844Z,5.30
2023-02-11T04:47:15.400Z,5.38
2023-02-11T04:49:42.865Z,5.34
2023-02-11T04:52:10.351Z,5.11
2023-02-11T04:54:37.503Z,5.29
2023-02-11T04:57:06.405Z,5.05
2023-02-11T04:59:34.440Z,5.18
2023-02-11T05:02:01.656Z,5.14
2023-02-11T05:04:29.138Z,5.09
2023-02-11T05:06:58.582Z,4.99
2023-02-11T05:09:25.864Z,5.21
2023-02-11T05:11:53.699Z,4.70
2023-02-11T05:14:20.870Z,4.75
2023-02-11T05:16:48.129Z,4.72
2023-02-11T05:19:15.624Z,4.70
2023-02-11T05:21:53.338Z,5.05
2023-02-11T05:24:27.857Z,4.99
2023-02-11T05:26:55.053Z,4.98
2023-02-11T05:29:22.634Z,4.92
2023-02-11T05:31:50.025Z,4.93
2023-02-11T05:34:17.152Z,4.79
2023-02-11T05:36:44.280Z,5.02
2023-02-11T05:39:11.773Z,5.16
2023-02-11T05:41:39.002Z,5.09
2023-02-11T05:44:06.151Z,5.18
2023-02-11T05:46:33.939Z,5.15
2023-02-11T05:49:01.109Z,5.10
2023-02-11T05:51:28.311Z,4.95
2023-02-11T05:53:55.761Z,5.01
2023-02-11T05:56:22.908Z,5.00
2023-02-11T05:58:50.097Z,5.05
2023-02-11T06:01:18.585Z,4.96
2023-02-11T06:03:46.064Z,4.88
2023-02-11T06:06:13.249Z,4.41
2023-02-11T06:08:40.506Z,4.63
2023-02-11T06:11:07.930Z,4.85
2023-02-11T06:13:35.384Z,5.10
2023-02-11T06:16:02.820Z,5.11
2023-02-11T06:18:30.606Z,5.10
2023-02-11T06:20:57.758Z,5.22
2023-02-11T06:23:25.112Z,5.01
2023-02-11T06:25:52.997Z,5.11
2023-02-11T06:28:20.479Z,5.29
2023-02-11T06:30:47.694Z,5.27
2023-02-11T06:33:15.527Z,5.48
2023-02-11T06:35:42.660Z,5.63
2023-02-11T06:38:09.803Z,5.69
2023-02-11T06:40:37.730Z,5.73
2023-02-11T06:43:04.870Z,5.76
2023-02-11T06:45:31.985Z,5.81
2023-02-11T06:47:59.418Z,6.06
2023-02-11T06:50:26.553Z,6.03
2023-02-11T06:52:53.680Z,6.11
2023-02-11T06:55:21.080Z,6.19
2023-02-11T06:57:48.234Z,5.93
2023-02-11T07:00:15.684Z,6.29
2023-02-11T07:02:43.150Z,6.22
2023-02-11T07:05:30.408Z,6.29
2023-02-11T07:07:57.820Z,6.28
2023-02-11T07:10:25.030Z,6.35
2023-02-11T07:12:52.270Z,6.25
2023-02-11T07:15:19.673Z,6.39
2023-02-11T07:17:46.874Z,6.45
2023-02-11T07:20:15.044Z,6.71
2023-02-11T07:22:42.465Z,6.57
2023-02-11T07:25:09.716Z,6.50
2023-02-11T07:27:36.946Z,7.10
2023-02-11T07:30:07.325Z,6.53
2023-02-11T07:32:34.633Z,6.45
2023-02-11T07:35:01.854Z,6.88
2023-02-11T07:37:31.822Z,6.71
2023-02-11T07:39:58.960Z,7.06
2023-02-11T07:42:26.081Z,7.34
2023-02-11T07:44:53.528Z,7.72
2023-02-11T07:47:20.670Z,7.67
2023-02-11T07:49:49.152Z,7.70
2023-02-11T07:52:18.339Z,6.90
2023-02-11T07:54:46.368Z,7.19
2023-02-11T07:57:13.580Z,7.38
2023-02-11T07:59:41.004Z,7.08
2023-02-11T08:02:09.068Z,6.97
2023-02-11T08:04:36.519Z,6.47
2023-02-11T08:07:03.677Z,7.48
2023-02-11T08:09:32.813Z,7.15
2023-02-11T08:12:02.374Z,6.86
2023-02-11T08:14:32.740Z,6.11
2023-02-11T08:16:59.884Z,6.34
2023-02-11T08:19:27.636Z,7.01
2023-02-11T08:21:58.432Z,7.36
2023-02-11T08:24:25.585Z,7.59
2023-02-11T08:26:53.237Z,7.06
2023-02-11T08:29:20.362Z,7.49
2023-02-11T08:31:47.870Z,7.25
2023-02-11T08:34:18.261Z,7.77
2023-02-11T08:36:45.816Z,6.62
2023-02-11T08:39:20.092Z,6.79
2023-02-11T08:41:49.093Z,8.00
2023-02-11T08:44:16.770Z,8.00
2023-02-11T08:46:43.919Z,7.89
2023-02-11T08:49:11.517Z,7.84
2023-02-11T08:51:38.697Z,7.92
2023-02-11T08:54:09.474Z,8.24
2023-02-11T08:56:37.561Z,8.14
2023-02-11T08:59:04.893Z,7.76
2023-02-11T09:01:32.362Z,8.02
2023-02-11T09:04:01.104Z,8.14
2023-02-11T09:06:28.380Z,7.83
2023-02-11T09:08:56.572Z,7.47
2023-02-11T09:11:28.606Z,7.92
2023-02-11T09:13:55.875Z,8.10
2023-02-11T09:16:27.292Z,8.60
2023-02-11T09:18:56.386Z,7.62
2023-02-11T09:21:23.514Z,8.72
2023-02-11T09:23:50.712Z,8.39
2023-02-11T09:26:25.199Z,8.34
2023-02-11T09:28:52.402Z,8.39
2023-02-11T09:31:21.322Z,7.06
2023-02-11T09:33:49.624Z,8.17
2023-02-11T09:36:17.648Z,8.76
2023-02-11T09:38:45.278Z,7.00
2023-02-11T09:41:24.762Z,7.87
2023-02-11T09:43:53.463Z,8.05
2023-02-11T09:46:20.851Z,8.33
2023-02-11T09:48:48.291Z,7.26
2023-02-11T09:51:29.853Z,8.01
2023-02-11T09:54:00.328Z,8.37
2023-02-11T09:56:28.387Z,6.74
2023-02-11T09:58:55.524Z,7.03
2023-02-11T10:01:22.718Z,8.35
2023-02-11T10:04:13.449Z,8.71
2023-02-11T10:06:45.355Z,9.49
2023-02-11T10:09:18.643Z,8.85
2023-02-11T10:12:04.604Z,8.89
2023-02-11T10:14:35.777Z,7.78
2023-02-11T10:17:05.830Z,8.93
2023-02-11T10:19:33.214Z,8.37
2023-02-11T10:22:20.605Z,9.28
2023-02-11T10:24:50.729Z,9.19
2023-02-11T10:27:19.755Z,9.78
2023-02-11T10:29:49.535Z,9.66
2023-02-11T10:32:38.038Z,8.89
2023-02-11T10:35:10.868Z,8.53
2023-02-11T10:37:38.286Z,9.39
2023-02-11T10:40:06.723Z,9.31
2023-02-11T10:42:33.864Z,9.74
2023-02-11T10:45:03.129Z,9.27
2023-02-11T10:47:32.897Z,9.85
2023-02-11T10:50:03.816Z,9.70
2023-02-11T10:52:31.340Z,10.26
2023-02-11T10:55:04.479Z,10.33
2023-02-11T10:57:35.978Z,10.35
2023-02-11T11:00:18.667Z,10.57
2023-02-11T11:02:46.741Z,9.91
2023-02-11T11:05:20.853Z,10.38
2023-02-11T11:07:55.634Z,10.10
2023-02-11T11:10:30.694Z,9.73
2023-02-11T11:12:58.118Z,10.32
2023-02-11T11:15:27.146Z,10.87
2023-02-11T11:18:20.948Z,10.88
2023-02-11T11:20:57.591Z,11.28
2023-02-11T11:23:25.035Z,11.14
2023-02-11T11:26:18.998Z,10.16
2023-02-11T11:28:49.292Z,10.64
2023-02-11T11:31:19.387Z,10.17
2023-02-11T11:33:46.685Z,11.11
2023-02-11T11:36:16.966Z,10.90
2023-02-11T11:38:46.233Z,9.30
2023-02-11T11:41:17.338Z,9.57
2023-02-11T11:43:54.689Z,9.61
2023-02-11T11:46:26.708Z,10.16
2023-02-11T11:48:55.375Z,10.17
2023-02-11T11:51:22.518Z,10.20
2023-02-11T11:54:00.607Z,9.84
2023-02-11T11:56:30.038Z,10.76
2023-02-11T11:58:58.242Z,10.82
2023-02-11T12:01:42.329Z,10.94
2023-02-11T12:04:13.218Z,9.71
2023-02-11T12:06:46.376Z,10.20
2023-02-11T12:09:19.654Z,9.65
2023-02-11T12:11:49.539Z,10.55
2023-02-11T12:14:20.759Z,9.75
2023-02-11T12:16:50.762Z,10.38
2023-02-11T12:19:37.668Z,10.20
2023-02-11T12:22:04.742Z,9.59
2023-02-11T12:24:41.255Z,9.96
2023-02-11T12:27:19.282Z,10.36
2023-02-11T12:30:05.496Z,9.85
2023-02-11T12:32:59.095Z,10.37
2023-02-11T12:35:28.666Z,10.01
2023-02-11T12:38:34.796Z,10.51
2023-02-11T12:41:11.641Z,10.91
2023-02-11T12:43:39.940Z,10.90
2023-02-11T12:46:27.922Z,10.40
2023-02-11T12:49:13.912Z,10.24
2023-02-11T12:51:51.184Z,10.95
2023-02-11T12:54:27.012Z,11.24
2023-02-11T12:56:55.084Z,10.48
2023-02-11T12:59:25.435Z,10.38
2023-02-11T13:01:53.005Z,10.42
2023-02-11T13:04:34.626Z,10.51
2023-02-11T13:07:08.430Z,10.30
2023-02-11T13:09:39.255Z,10.08
2023-02-11T13:12:31.757Z,8.65
2023-02-11T13:15:04.054Z,9.86
2023-02-11T13:18:04.279Z,9.96
2023-02-11T13:20:36.524Z,9.27
2023-02-11T13:23:24.258Z,9.52
2023-02-11T13:26:00.741Z,9.74
2023-02-11T13:28:28.305Z,9.70
2023-02-11T13:31:03.359Z,10.31
2023-02-11T13:33:32.861Z,10.89
2023-02-11T13:36:02.106Z,10.24
2023-02-11T13:38:31.868Z,10.04
2023-02-11T13:41:23.438Z,10.69
2023-02-11T13:44:02.591Z,10.21
2023-02-11T13:46:31.086Z,10.69
2023-02-11T13:48:59.117Z,10.39
2023-02-11T13:51:35.667Z,11.50
2023-02-11T13:54:04.114Z,11.71
2023-02-11T13:56:33.395Z,11.43
2023-02-11T13:59:21.133Z,11.38
2023-02-11T14:02:08.797Z,11.05
2023-02-11T14:04:54.867Z,11.99
2023-02-11T14:07:45.205Z,11.39
2023-02-11T14:10:31.472Z,11.38
2023-02-11T14:13:27.768Z,11.49
2023-02-11T14:16:04.642Z,12.39
2023-02-11T14:18:52.491Z,11.52
2023-02-11T14:21:20.506Z,11.41
2023-02-11T14:23:48.024Z,11.85
2023-02-11T14:26:21.952Z,12.12
2023-02-11T14:29:02.571Z,12.12
2023-02-11T14:31:41.765Z,11.90
2023-02-11T14:34:22.316Z,11.92
2023-02-11T14:36:51.966Z,11.27
2023-02-11T14:39:23.257Z,11.10
2023-02-11T14:41:51.511Z,12.12
2023-02-11T14:44:20.216Z,11.74
2023-02-11T14:46:49.207Z,11.11
2023-02-11T14:49:25.624Z,11.92
2023-02-11T14:51:59.467Z,10.87
2023-02-11T14:54:27.828Z,10.31
2023-02-11T14:57:16.066Z,11.27
2023-02-11T15:00:14.687Z,10.91
2023-02-11T15:02:43.600Z,10.81
2023-02-11T15:05:37.640Z,11.34
2023-02-11T15:08:14.085Z,11.23
2023-02-11T15:10:44.684Z,10.98
2023-02-11T15:13:17.069Z,11.41
2023-02-11T15:15:46.654Z,11.87
2023-02-11T15:18:21.680Z,12.52
2023-02-11T15:20:49.889Z,12.24
2023-02-11T15:23:21.547Z,12.82
2023-02-11T15:25:56.337Z,11.59
2023-02-11T15:28:31.734Z,12.53
2023-02-11T15:31:02.393Z,12.86
2023-02-11T15:33:32.314Z,12.86
2023-02-11T15:36:01.626Z,12.16
2023-02-11T15:38:33.478Z,11.88
2023-02-11T15:41:02.601Z,12.36
2023-02-11T15:43:46.830Z,12.09
2023-02-11T15:46:16.446Z,11.89
2023-02-11T15:48:47.918Z,12.00
2023-02-11T15:51:23.294Z,11.78
2023-02-11T15:53:57.171Z,11.91
2023-02-11T15:56:25.968Z,12.14
2023-02-11T15:58:55.161Z,12.20
2023-02-11T16:01:32.451Z,12.22
2023-02-11T16:04:02.002Z,12.04
2023-02-11T16:06:36.109Z,11.91
2023-02-11T16:09:04.265Z,12.23
2023-02-11T16:11:33.289Z,11.98
2023-02-11T16:14:04.574Z,11.74
2023-02-11T16:16:34.827Z,11.76
2023-02-11T16:19:05.998Z,11.96
2023-02-11T16:21:39.558Z,11.93
2023-02-11T16:24:07.640Z,12.01
2023-02-11T16:26:41.376Z,11.65
2023-02-11T16:29:13.928Z,11.25
2023-02-11T16:31:43.011Z,11.60
2023-02-11T16:34:15.941Z,11.90
2023-02-11T16:36:47.246Z,11.76
2023-02-11T16:39:16.845Z,12.02
2023-02-11T16:41:45.536Z,12.01
2023-02-11T16:44:13.881Z,11.92
2023-02-11T16:46:42.189Z,11.35
2023-02-11T16:49:12.920Z,11.62
2023-02-11T16:51:41.674Z,11.40
2023-02-11T16:54:12.238Z,11.73
2023-02-11T16:56:41.797Z,11.48
2023-02-11T16:59:10.003Z,11.65
2023-02-11T17:01:39.809Z,11.82
2023-02-11T17:04:12.912Z,11.61
2023-02-11T17:06:42.266Z,11.53
2023-02-11T17:09:15.136Z,11.09
2023-02-11T17:11:43.863Z,10.65
2023-02-11T17:14:13.436Z,11.13
2023-02-11T17:16:43.169Z,11.58
2023-02-11T17:19:12.614Z,11.68
2023-02-11T17:21:42.023Z,11.36
2023-02-11T17:24:10.691Z,11.14
2023-02-11T17:26:42.345Z,11.60
2023-02-11T17:29:13.359Z,11.17
2023-02-11T17:31:43.281Z,11.29
2023-02-11T17:34:11.261Z,11.45
2023-02-11T17:36:39.675Z,10.91
2023-02-11T17:39:08.390Z,11.34
2023-02-11T17:41:37.545Z,11.35
2023-02-11T17:44:05.834Z,11.24
2023-02-11T17:46:37.308Z,11.32
2023-02-11T17:49:07.238Z,10.88
2023-02-11T17:51:36.932Z,10.41
2023-02-11T17:54:08.169Z,10.89
2023-02-11T17:56:36.953Z,10.81
2023-02-11T17:59:05.929Z,11.24
2023-02-11T18:01:34.074Z,11.56
2023-02-11T18:04:06.217Z,11.41
2023-02-11T18:06:35.538Z,10.51
2023-02-11T18:09:09.874Z,10.66
2023-02-11T18:11:41.537Z,11.03
2023-02-11T18:14:11.335Z,11.32
2023-02-11T18:16:43.671Z,10.77
2023-02-11T18:19:13.870Z,10.97
2023-02-11T18:21:50.851Z,10.15
2023-02-11T18:24:19.657Z,10.48
2023-02-11T18:26:48.536Z,9.73
2023-02-11T18:29:16.914Z,10.01
2023-02-11T18:31:46.369Z,10.00
2023-02-11T18:34:15.949Z,10.71
2023-02-11T18:36:44.138Z,10.68
2023-02-11T18:39:12.268Z,10.55
2023-02-11T18:41:42.789Z,11.35
2023-02-11T18:44:11.785Z,10.94
2023-02-11T18:46:41.934Z,10.34
2023-02-11T18:49:15.067Z,10.88
2023-02-11T18:51:50.383Z,10.89
2023-02-11T18:54:19.185Z,10.68
2023-02-11T18:56:48.100Z,10.82
2023-02-11T18:59:16.112Z,10.64
2023-02-11T19:01:47.374Z,11.14
2023-02-11T19:04:20.301Z,11.11
2023-02-11T19:06:50.023Z,10.85
2023-02-11T19:09:20.186Z,11.46
2023-02-11T19:11:49.445Z,11.32
2023-02-11T19:14:27.925Z,11.44
2023-02-11T19:16:57.824Z,11.13
2023-02-11T19:19:28.435Z,11.40
2023-02-11T19:22:00.328Z,11.12
2023-02-11T19:24:29.470Z,11.11
2023-02-11T19:27:00.015Z,11.23
2023-02-11T19:29:30.531Z,11.32
2023-02-11T19:31:59.593Z,11.29
2023-02-11T19:34:28.620Z,11.06
2023-02-11T19:37:02.205Z,10.56
2023-02-11T19:39:31.841Z,10.74
2023-02-11T19:42:01.890Z,10.79
2023-02-11T19:44:30.026Z,11.60
2023-02-11T19:46:58.029Z,10.70
2023-02-11T19:49:26.970Z,10.54
2023-02-11T19:51:55.885Z,11.57
2023-02-11T19:54:27.079Z,11.52
2023-02-11T19:56:56.316Z,11.60
2023-02-11T19:59:24.302Z,11.35
2023-02-11T20:01:54.097Z,10.98
2023-02-11T20:04:25.229Z,10.75
2023-02-11T20:06:58.448Z,10.40
2023-02-11T20:09:29.541Z,10.50
2023-02-11T20:11:58.859Z,11.09
2023-02-11T20:14:28.177Z,9.99
2023-02-11T20:16:57.909Z,10.90
2023-02-11T20:19:26.651Z,11.28
2023-02-11T20:21:56.292Z,10.92
2023-02-11T20:24:25.272Z,11.47
2023-02-11T20:26:56.206Z,11.35
2023-02-11T20:29:25.928Z,10.63
2023-02-11T20:32:00.618Z,9.72
2023-02-11T20:34:28.624Z,9.34
2023-02-11T20:36:57.607Z,8.66
2023-02-11T20:39:26.455Z,9.10
2023-02-11T20:41:55.039Z,8.95
2023-02-11T20:44:24.726Z,10.00
2023-02-11T20:46:54.738Z,10.27
2023-02-11T20:49:24.930Z,9.73
2023-02-11T20:51:57.670Z,9.99
2023-02-11T20:54:26.571Z,10.26
2023-02-11T20:56:58.449Z,10.17
2023-02-11T20:59:28.275Z,10.85
2023-02-11T21:01:57.835Z,10.29
2023-02-11T21:04:29.204Z,10.33
2023-02-11T21:06:59.065Z,9.34
2023-02-11T21:09:30.714Z,10.01
2023-02-11T21:11:58.863Z,10.99
2023-02-11T21:14:27.077Z,9.30
2023-02-11T21:16:56.991Z,9.69
2023-02-11T21:19:25.516Z,10.16
2023-02-11T21:21:57.252Z,10.67
2023-02-11T21:24:25.345Z,9.60
2023-02-11T21:26:53.812Z,9.99
2023-02-11T21:29:26.370Z,9.71
2023-02-11T21:32:00.538Z,9.52
2023-02-11T21:34:33.068Z,9.71
2023-02-11T21:37:02.695Z,9.56
2023-02-11T21:39:31.365Z,10.57
2023-02-11T21:41:59.291Z,9.42
2023-02-11T21:44:28.483Z,9.99
2023-02-11T21:46:57.189Z,9.19
2023-02-11T21:49:26.007Z,9.19
2023-02-11T21:51:53.920Z,9.60
2023-02-11T21:54:22.475Z,9.21
2023-02-11T21:56:50.989Z,9.66
2023-02-11T21:59:20.511Z,9.57
2023-02-11T22:01:49.229Z,9.84
2023-02-11T22:04:17.667Z,9.08
2023-02-11T22:06:45.203Z,8.96
2023-02-11T22:09:13.286Z,8.28
2023-02-11T22:11:41.704Z,7.93
2023-02-11T22:14:11.549Z,7.99
2023-02-11T22:16:39.134Z,8.34
2023-02-11T22:19:07.598Z,8.67
2023-02-11T22:21:35.078Z,9.32
2023-02-11T22:24:02.319Z,7.94
2023-02-11T22:26:29.958Z,8.94
2023-02-11T22:28:57.376Z,8.63
2023-02-11T22:31:28.870Z,8.77
2023-02-11T22:33:57.216Z,8.38
2023-02-11T22:36:31.421Z,7.54
2023-02-11T22:39:01.480Z,7.90
2023-02-11T22:41:28.755Z,8.53
2023-02-11T22:43:55.895Z,8.10
2023-02-11T22:46:23.381Z,8.34
2023-02-11T22:48:50.828Z,7.67
2023-02-11T22:51:19.514Z,8.50
2023-02-11T22:53:50.626Z,8.40
2023-02-11T22:56:17.808Z,8.39
2023-02-11T22:58:44.956Z,7.37
2023-02-11T23:01:12.836Z,7.03
2023-02-11T23:03:40.217Z,7.34
2023-02-11T23:06:07.401Z,7.45
2023-02-11T23:08:35.184Z,8.16
2023-02-11T23:11:06.547Z,8.35
2023-02-11T23:13:34.697Z,8.86
2023-02-11T23:16:06.099Z,9.49
2023-02-11T23:18:34.839Z,8.29
2023-02-11T23:21:04.008Z,7.88
2023-02-11T23:23:31.155Z,8.12
2023-02-11T23:25:58.356Z,7.66
2023-02-11T23:28:25.938Z,8.26
2023-02-11T23:30:53.474Z,8.69
2023-02-11T23:33:20.834Z,8.88
2023-02-11T23:35:48.592Z,8.36
2023-02-11T23:38:15.755Z,8.53
2023-02-11T23:40:43.000Z,9.32
2023-02-11T23:43:10.499Z,9.11
2023-02-11T23:45:37.657Z,9.62
2023-02-11T23:48:04.824Z,9.07
2023-02-11T23:50:32.836Z,9.17
2023-02-11T23:52:59.957Z,9.63
2023-02-11T23:55:27.116Z,9.25
2023-02-11T23:57:54.522Z,9.09
